createdAt,value
2023-01-08T00:01:03.000Z,999.8
2023-01-08T00:02:15.000Z,999.7
2023-01-08T00:03:28.000Z,999.8
2023-01-08T00:04:40.000Z,999.7
2023-01-08T00:05:52.000Z,999.7
2023-01-08T00:07:04.000Z,999.7
2023-01-08T00:08:15.000Z,999.7
2023-01-08T00:09:28.000Z,999.6
2023-01-08T00:10:40.000Z,999.7
2023-01-08T00:11:52.000Z,999.6
2023-01-08T00:13:04.000Z,999.6
2023-01-08T00:14:16.000Z,999.6
2023-01-08T00:15:28.000Z,999.6
2023-01-08T00:16:41.000Z,999.6
2023-01-08T00:17:53.000Z,999.7
2023-01-08T00:19:05.000Z,999.8
2023-01-08T00:20:17.000Z,999.6
2023-01-08T00:21:29.000Z,999.6
2023-01-08T00:22:42.000Z,999.6
2023-01-08T00:23:53.000Z,999.6
2023-01-08T00:25:05.000Z,999.7
2023-01-08T00:26:17.000Z,999.6
2023-01-08T00:27:29.000Z,999.6
2023-01-08T00:28:42.000Z,999.7
2023-01-08T00:29:54.000Z,999.6
2023-01-08T00:31:06.000Z,999.6
2023-01-08T00:32:18.000Z,999.6
2023-01-08T00:33:30.000Z,999.5
2023-01-08T00:34:42.000Z,999.5
2023-01-08T00:35:55.000Z,999.5
2023-01-08T00:37:07.000Z,999.5
2023-01-08T00:38:19.000Z,999.4
2023-01-08T00:39:30.000Z,999.5
2023-01-08T00:40:42.000Z,999.4
2023-01-08T00:41:55.000Z,999.4
2023-01-08T00:43:07.000Z,999.4
2023-01-08T00:44:19.000Z,999.4
2023-01-08T00:45:31.000Z,999.4
2023-01-08T00:46:43.000Z,999.4
2023-01-08T00:47:55.000Z,999.4
2023-01-08T00:49:08.000Z,999.4
2023-01-08T00:50:20.000Z,999.3
2023-01-08T00:51:32.000Z,999.4
2023-01-08T00:52:44.000Z,999.4
2023-01-08T00:53:56.000Z,999.3
2023-01-08T00:55:08.000Z,999.4
2023-01-08T00:57:32.000Z,999.2
2023-01-08T00:58:44.000Z,999.2
2023-01-08T00:59:56.000Z,999.3
2023-01-08T01:01:09.000Z,999.3
2023-01-08T01:02:21.000Z,999.2
2023-01-08T01:03:33.000Z,999.2
2023-01-08T01:03:44.321Z,999.3
2023-01-08T01:04:45.000Z,999.1
2023-01-08T01:07:09.000Z,999.2
2023-01-08T01:08:22.000Z,999.2
2023-01-08T01:09:34.000Z,999.1
2023-01-08T01:10:45.000Z,999
2023-01-08T01:11:57.000Z,999.1
2023-01-08T01:13:09.000Z,999.1
2023-01-08T01:13:21.814Z,999.1
2023-01-08T01:14:22.000Z,999.1
2023-01-08T01:15:34.000Z,999.2
2023-01-08T01:16:46.000Z,999.1
2023-01-08T01:17:58.000Z,999.1
2023-01-08T01:19:10.000Z,999.1
2023-01-08T01:20:23.000Z,999.1
2023-01-08T01:21:35.000Z,999.1
2023-01-08T01:22:47.000Z,999.1
2023-01-08T01:23:59.000Z,999.1
2023-01-08T01:25:11.000Z,999.1
2023-01-08T01:26:22.000Z,999.1
2023-01-08T01:27:35.000Z,999.1
2023-01-08T01:28:47.000Z,999
2023-01-08T01:29:59.000Z,999.1
2023-01-08T01:31:11.000Z,999.1
2023-01-08T01:32:23.000Z,999.1
2023-01-08T01:33:36.000Z,999.1
2023-01-08T01:34:48.000Z,999.1
2023-01-08T01:36:00.000Z,999.1
2023-01-08T01:37:12.000Z,999.1
2023-01-08T01:38:24.000Z,999.1
2023-01-08T01:39:37.000Z,999
2023-01-08T01:40:49.000Z,999
2023-01-08T01:42:00.000Z,999
2023-01-08T01:43:12.000Z,999.1
2023-01-08T01:44:24.000Z,999
2023-01-08T01:45:36.000Z,999.1
2023-01-08T01:46:49.000Z,999.1
2023-01-08T01:48:01.000Z,999.1
2023-01-08T01:50:25.000Z,999
2023-01-08T01:51:37.000Z,999.1
2023-01-08T01:52:50.000Z,998.9
2023-01-08T01:54:02.000Z,999.1
2023-01-08T01:55:14.000Z,999
2023-01-08T01:56:26.000Z,999
2023-01-08T01:56:37.555Z,999.1
2023-01-08T01:57:37.000Z,999
2023-01-08T01:58:50.000Z,999
2023-01-08T02:00:02.000Z,998.9
2023-01-08T02:01:14.000Z,998.8
2023-01-08T02:02:26.000Z,998.7
2023-01-08T02:03:38.000Z,998.7
2023-01-08T02:04:50.000Z,998.7
2023-01-08T02:06:03.000Z,998.7
2023-01-08T02:07:15.000Z,998.6
2023-01-08T02:08:27.000Z,998.7
2023-01-08T02:09:39.000Z,998.7
2023-01-08T02:10:51.000Z,998.7
2023-01-08T02:12:04.000Z,998.7
2023-01-08T02:13:15.000Z,998.7
2023-01-08T02:14:27.000Z,998.7
2023-01-08T02:15:39.000Z,998.8
2023-01-08T02:16:51.000Z,998.7
2023-01-08T02:18:03.000Z,998.7
2023-01-08T02:19:16.000Z,998.6
2023-01-08T02:20:28.000Z,998.5
2023-01-08T02:21:40.000Z,998.5
2023-01-08T02:22:52.000Z,998.5
2023-01-08T02:24:04.000Z,998.5
2023-01-08T02:25:17.000Z,998.6
2023-01-08T02:26:29.000Z,998.6
2023-01-08T02:27:41.000Z,998.5
2023-01-08T02:28:52.000Z,998.6
2023-01-08T02:30:04.000Z,998.5
2023-01-08T02:32:29.000Z,998.4
2023-01-08T02:33:41.000Z,998.4
2023-01-08T02:34:53.000Z,998.4
2023-01-08T02:36:05.000Z,998.4
2023-01-08T02:37:17.000Z,998.4
2023-01-08T02:38:30.000Z,998.4
2023-01-08T02:38:41.121Z,998.5
2023-01-08T02:39:42.000Z,998.5
2023-01-08T02:40:54.000Z,998.5
2023-01-08T02:42:06.000Z,998.5
2023-01-08T02:43:18.000Z,998.5
2023-01-08T02:44:30.000Z,998.4
2023-01-08T02:45:42.000Z,998.4
2023-01-08T02:46:54.000Z,998.4
2023-01-08T02:48:06.000Z,998.5
2023-01-08T02:49:18.000Z,998.5
2023-01-08T02:50:31.000Z,998.4
2023-01-08T02:52:55.000Z,998.5
2023-01-08T02:54:07.000Z,998.4
2023-01-08T02:55:19.000Z,998.4
2023-01-08T02:56:31.000Z,998.5
2023-01-08T02:57:44.000Z,998.5
2023-01-08T02:58:56.000Z,998.5
2023-01-08T02:59:07.308Z,998.4
2023-01-08T03:00:07.000Z,998.5
2023-01-08T03:01:19.000Z,998.5
2023-01-08T03:02:31.000Z,998.5
2023-01-08T03:03:44.000Z,998.6
2023-01-08T03:04:56.000Z,998.5
2023-01-08T03:06:08.000Z,998.5
2023-01-08T03:07:20.000Z,998.5
2023-01-08T03:08:32.000Z,998.6
2023-01-08T03:09:45.000Z,998.6
2023-01-08T03:10:57.000Z,998.6
2023-01-08T03:12:09.000Z,998.6
2023-01-08T03:13:21.000Z,998.7
2023-01-08T03:14:33.000Z,998.7
2023-01-08T03:15:44.000Z,998.6
2023-01-08T03:16:57.000Z,998.6
2023-01-08T03:18:09.000Z,998.6
2023-01-08T03:19:21.000Z,998.5
2023-01-08T03:20:33.000Z,998.5
2023-01-08T03:21:45.000Z,998.5
2023-01-08T03:24:10.000Z,998.4
2023-01-08T03:25:22.000Z,998.4
2023-01-08T03:26:34.000Z,998.4
2023-01-08T03:27:46.000Z,998.4
2023-01-08T03:28:58.000Z,998.3
2023-01-08T03:30:11.000Z,998.3
2023-01-08T03:30:22.176Z,998.4
2023-01-08T03:31:22.000Z,998.3
2023-01-08T03:32:34.000Z,998.4
2023-01-08T03:33:46.000Z,998.4
2023-01-08T03:34:58.000Z,998.3
2023-01-08T03:36:11.000Z,998.3
2023-01-08T03:37:23.000Z,998.3
2023-01-08T03:38:34.000Z,998.3
2023-01-08T03:39:46.000Z,998.3
2023-01-08T03:40:58.000Z,998.4
2023-01-08T03:42:11.000Z,998.4
2023-01-08T03:43:23.000Z,998.3
2023-01-08T03:44:35.000Z,998.3
2023-01-08T03:45:47.000Z,998.4
2023-01-08T03:46:59.000Z,998.3
2023-01-08T03:48:11.000Z,998.4
2023-01-08T03:49:24.000Z,998.4
2023-01-08T03:50:36.000Z,998.4
2023-01-08T03:51:48.000Z,998.4
2023-01-08T03:53:00.000Z,998.4
2023-01-08T03:54:11.000Z,998.4
2023-01-08T03:55:24.000Z,998.4
2023-01-08T03:56:36.000Z,998.4
2023-01-08T03:57:48.000Z,998.4
2023-01-08T03:59:00.000Z,998.3
2023-01-08T04:00:12.000Z,998.4
2023-01-08T04:01:25.000Z,998.4
2023-01-08T04:02:37.000Z,998.3
2023-01-08T04:03:49.000Z,998.3
2023-01-08T04:05:01.000Z,998.3
2023-01-08T04:06:13.000Z,998.3
2023-01-08T04:07:25.000Z,998.4
2023-01-08T04:08:38.000Z,998.3
2023-01-08T04:09:49.000Z,998.4
2023-01-08T04:11:01.000Z,998.3
2023-01-08T04:12:13.000Z,998.3
2023-01-08T04:13:25.000Z,998.2
2023-01-08T04:14:38.000Z,998.2
2023-01-08T04:15:50.000Z,998.2
2023-01-08T04:17:02.000Z,998.2
2023-01-08T04:18:14.000Z,998.1
2023-01-08T04:19:26.000Z,998.1
2023-01-08T04:20:39.000Z,998.2
2023-01-08T04:21:51.000Z,998.2
2023-01-08T04:23:03.000Z,998.1
2023-01-08T04:24:15.000Z,998.1
2023-01-08T04:25:26.000Z,998.1
2023-01-08T04:26:38.000Z,998.1
2023-01-08T04:27:51.000Z,998
2023-01-08T04:29:03.000Z,998
2023-01-08T04:30:15.000Z,997.9
2023-01-08T04:31:27.000Z,998
2023-01-08T04:32:39.000Z,998
2023-01-08T04:33:52.000Z,998
2023-01-08T04:35:04.000Z,998
2023-01-08T04:36:16.000Z,998
2023-01-08T04:37:28.000Z,998
2023-01-08T04:38:40.000Z,997.9
2023-01-08T04:39:53.000Z,997.9
2023-01-08T04:41:04.000Z,998
2023-01-08T04:42:16.000Z,997.9
2023-01-08T04:43:28.000Z,997.9
2023-01-08T04:44:40.000Z,997.9
2023-01-08T04:45:52.000Z,997.9
2023-01-08T04:47:05.000Z,997.9
2023-01-08T04:48:17.000Z,997.7
2023-01-08T04:49:29.000Z,997.8
2023-01-08T04:50:41.000Z,997.7
2023-01-08T04:51:53.000Z,997.7
2023-01-08T04:53:06.000Z,997.8
2023-01-08T04:54:18.000Z,997.7
2023-01-08T04:55:30.000Z,997.8
2023-01-08T04:56:41.000Z,997.7
2023-01-08T04:57:53.000Z,997.6
2023-01-08T04:59:06.000Z,997.6
2023-01-08T05:00:18.000Z,997.6
2023-01-08T05:01:30.000Z,997.7
2023-01-08T05:02:42.000Z,997.7
2023-01-08T05:03:54.000Z,997.7
2023-01-08T05:05:06.000Z,997.7
2023-01-08T05:06:19.000Z,997.7
2023-01-08T05:07:31.000Z,997.7
2023-01-08T05:08:43.000Z,997.7
2023-01-08T05:09:55.000Z,997.7
2023-01-08T05:11:07.000Z,997.7
2023-01-08T05:12:19.000Z,997.7
2023-01-08T05:13:31.000Z,997.6
2023-01-08T05:14:43.000Z,997.7
2023-01-08T05:15:55.000Z,997.6
2023-01-08T05:17:07.000Z,997.6
2023-01-08T05:18:19.000Z,997.6
2023-01-08T05:19:32.000Z,997.6
2023-01-08T05:20:44.000Z,997.5
2023-01-08T05:21:56.000Z,997.6
2023-01-08T05:23:08.000Z,997.6
2023-01-08T05:24:20.000Z,997.6
2023-01-08T05:25:33.000Z,997.6
2023-01-08T05:26:45.000Z,997.6
2023-01-08T05:27:56.000Z,997.7
2023-01-08T05:29:08.000Z,997.6
2023-01-08T05:30:20.000Z,997.7
2023-01-08T05:31:33.000Z,997.6
2023-01-08T05:32:45.000Z,997.5
2023-01-08T05:33:57.000Z,997.5
2023-01-08T05:35:09.000Z,997.4
2023-01-08T05:36:21.000Z,997.4
2023-01-08T05:37:33.000Z,997.4
2023-01-08T05:38:46.000Z,997.4
2023-01-08T05:39:58.000Z,997.4
2023-01-08T05:41:10.000Z,997.5
2023-01-08T05:42:22.000Z,997.5
2023-01-08T05:43:33.000Z,997.5
2023-01-08T05:44:46.000Z,997.5
2023-01-08T05:45:58.000Z,997.5
2023-01-08T05:47:10.000Z,997.6
2023-01-08T05:48:22.000Z,997.5
2023-01-08T05:49:34.000Z,997.5
2023-01-08T05:50:47.000Z,997.6
2023-01-08T05:51:59.000Z,997.6
2023-01-08T05:53:11.000Z,997.6
2023-01-08T05:54:23.000Z,997.6
2023-01-08T05:55:35.000Z,997.6
2023-01-08T05:56:47.000Z,997.7
2023-01-08T05:58:00.000Z,997.6
2023-01-08T05:59:11.000Z,997.6
2023-01-08T06:00:23.000Z,997.6
2023-01-08T06:01:35.000Z,997.7
2023-01-08T06:02:47.000Z,997.6
2023-01-08T06:04:00.000Z,997.6
2023-01-08T06:05:12.000Z,997.7
2023-01-08T06:06:24.000Z,997.7
2023-01-08T06:08:48.000Z,997.7
2023-01-08T06:10:01.000Z,997.7
2023-01-08T06:11:13.000Z,997.7
2023-01-08T06:12:25.000Z,997.7
2023-01-08T06:13:37.000Z,997.7
2023-01-08T06:14:48.000Z,997.7
2023-01-08T06:15:00.853Z,997.7
2023-01-08T06:16:00.000Z,997.7
2023-01-08T06:17:13.000Z,997.7
2023-01-08T06:19:37.000Z,997.7
2023-01-08T06:20:49.000Z,997.6
2023-01-08T06:22:01.000Z,997.7
2023-01-08T06:24:26.000Z,997.7
2023-01-08T06:25:38.000Z,997.6
2023-01-08T06:25:49.539Z,997.7
2023-01-08T06:26:50.000Z,997.6
2023-01-08T06:28:02.000Z,997.7
2023-01-08T06:29:14.000Z,997.7
2023-01-08T06:30:26.000Z,997.7
2023-01-08T06:30:38.299Z,997.7
2023-01-08T06:31:38.000Z,997.6
2023-01-08T06:32:50.000Z,997.6
2023-01-08T06:34:02.000Z,997.6
2023-01-08T06:35:14.000Z,997.6
2023-01-08T06:36:27.000Z,997.7
2023-01-08T06:37:39.000Z,997.7
2023-01-08T06:38:51.000Z,997.7
2023-01-08T06:40:03.000Z,997.8
2023-01-08T06:41:15.000Z,997.7
2023-01-08T06:42:28.000Z,997.8
2023-01-08T06:43:40.000Z,997.7
2023-01-08T06:44:52.000Z,997.6
2023-01-08T06:46:03.000Z,997.7
2023-01-08T06:47:15.000Z,997.7
2023-01-08T06:48:27.000Z,997.7
2023-01-08T06:49:40.000Z,997.7
2023-01-08T06:50:52.000Z,997.7
2023-01-08T06:52:04.000Z,997.7
2023-01-08T06:53:16.000Z,997.6
2023-01-08T06:54:28.000Z,997.6
2023-01-08T06:55:41.000Z,997.6
2023-01-08T06:56:53.000Z,997.5
2023-01-08T06:58:05.000Z,997.5
2023-01-08T06:59:17.000Z,997.5
2023-01-08T07:00:29.000Z,997.5
2023-01-08T07:01:41.000Z,997.5
2023-01-08T07:02:53.000Z,997.6
2023-01-08T07:04:05.000Z,997.5
2023-01-08T07:05:17.000Z,997.5
2023-01-08T07:06:29.000Z,997.4
2023-01-08T07:07:41.000Z,997.5
2023-01-08T07:08:54.000Z,997.5
2023-01-08T07:10:06.000Z,997.5
2023-01-08T07:11:18.000Z,997.5
2023-01-08T07:12:30.000Z,997.5
2023-01-08T07:13:42.000Z,997.6
2023-01-08T07:14:55.000Z,997.7
2023-01-08T07:16:07.000Z,997.7
2023-01-08T07:17:18.000Z,997.7
2023-01-08T07:18:30.000Z,997.6
2023-01-08T07:19:42.000Z,997.6
2023-01-08T07:20:55.000Z,997.5
2023-01-08T07:22:07.000Z,997.4
2023-01-08T07:23:19.000Z,997.3
2023-01-08T07:24:31.000Z,997.4
2023-01-08T07:25:43.000Z,997.4
2023-01-08T07:26:55.000Z,997.4
2023-01-08T07:28:08.000Z,997.4
2023-01-08T07:29:20.000Z,997.3
2023-01-08T07:30:32.000Z,997.3
2023-01-08T07:31:44.000Z,997.4
2023-01-08T07:32:55.000Z,997.3
2023-01-08T07:34:08.000Z,997.3
2023-01-08T07:35:20.000Z,997.3
2023-01-08T07:36:32.000Z,997.3
2023-01-08T07:37:44.000Z,997.2
2023-01-08T07:38:56.000Z,997
2023-01-08T07:40:08.000Z,997
2023-01-08T07:41:20.000Z,997.1
2023-01-08T07:42:32.000Z,997
2023-01-08T07:43:44.000Z,997
2023-01-08T07:44:56.000Z,997.1
2023-01-08T07:46:08.000Z,997.1
2023-01-08T07:47:21.000Z,997.2
2023-01-08T07:48:33.000Z,997.2
2023-01-08T07:49:45.000Z,997.3
2023-01-08T07:50:57.000Z,997.2
2023-01-08T07:52:09.000Z,997.2
2023-01-08T07:53:22.000Z,997.2
2023-01-08T07:54:34.000Z,997.3
2023-01-08T07:55:45.000Z,997.3
2023-01-08T07:56:57.000Z,997.3
2023-01-08T07:58:09.000Z,997.3
2023-01-08T08:00:34.000Z,997.3
2023-01-08T08:02:58.000Z,997.4
2023-01-08T08:04:10.000Z,997.4
2023-01-08T08:05:22.000Z,997.4
2023-01-08T08:06:35.000Z,997.4
2023-01-08T08:06:46.289Z,997.3
2023-01-08T08:07:47.000Z,997.5
2023-01-08T08:09:10.661Z,997.3
2023-01-08T08:10:11.000Z,997.5
2023-01-08T08:11:23.000Z,997.6
2023-01-08T08:12:35.000Z,997.5
2023-01-08T08:13:47.000Z,997.6
2023-01-08T08:14:59.000Z,997.6
2023-01-08T08:16:11.000Z,997.6
2023-01-08T08:16:23.777Z,997.5
2023-01-08T08:18:35.000Z,997.6
2023-01-08T08:19:48.000Z,997.5
2023-01-08T08:21:00.000Z,997.6
2023-01-08T08:22:12.000Z,997.6
2023-01-08T08:23:24.000Z,997.6
2023-01-08T08:24:36.000Z,997.6
2023-01-08T08:24:48.099Z,997.6
2023-01-08T08:25:49.000Z,997.6
2023-01-08T08:27:01.000Z,997.5
2023-01-08T08:28:12.000Z,997.5
2023-01-08T08:29:24.000Z,997.5
2023-01-08T08:30:36.000Z,997.5
2023-01-08T08:31:49.000Z,997.5
2023-01-08T08:33:01.000Z,997.4
2023-01-08T08:34:13.000Z,997.4
2023-01-08T08:35:25.000Z,997.5
2023-01-08T08:36:37.000Z,997.5
2023-01-08T08:37:49.000Z,997.5
2023-01-08T08:39:02.000Z,997.5
2023-01-08T08:40:14.000Z,997.5
2023-01-08T08:41:26.000Z,997.4
2023-01-08T08:42:38.000Z,997.5
2023-01-08T08:43:49.000Z,997.4
2023-01-08T08:45:02.000Z,997.4
2023-01-08T08:46:14.000Z,997.4
2023-01-08T08:47:26.000Z,997.4
2023-01-08T08:48:38.000Z,997.4
2023-01-08T08:49:50.000Z,997.4
2023-01-08T08:51:03.000Z,997.4
2023-01-08T08:52:15.000Z,997.3
2023-01-08T08:53:27.000Z,997.4
2023-01-08T08:54:39.000Z,997.3
2023-01-08T08:55:51.000Z,997.4
2023-01-08T08:57:03.000Z,997.3
2023-01-08T08:58:16.000Z,997.3
2023-01-08T08:59:27.000Z,997.3
2023-01-08T09:00:39.000Z,997.3
2023-01-08T09:01:51.000Z,997.4
2023-01-08T09:03:03.000Z,997.3
2023-01-08T09:04:16.000Z,997.4
2023-01-08T09:05:28.000Z,997.4
2023-01-08T09:06:40.000Z,997.3
2023-01-08T09:07:52.000Z,997.4
2023-01-08T09:09:04.000Z,997.5
2023-01-08T09:10:16.000Z,997.3
2023-01-08T09:11:29.000Z,997.4
2023-01-08T09:12:41.000Z,997.4
2023-01-08T09:13:53.000Z,997.3
2023-01-08T09:15:04.000Z,997.4
2023-01-08T09:16:16.000Z,997.3
2023-01-08T09:17:29.000Z,997.4
2023-01-08T09:19:53.000Z,997.4
2023-01-08T09:21:05.000Z,997.3
2023-01-08T09:22:17.000Z,997.3
2023-01-08T09:23:30.000Z,997.3
2023-01-08T09:24:42.000Z,997.3
2023-01-08T09:25:54.000Z,997.3
2023-01-08T09:26:05.619Z,997.3
2023-01-08T09:27:06.000Z,997.3
2023-01-08T09:28:18.000Z,997.4
2023-01-08T09:29:30.000Z,997.4
2023-01-08T09:30:42.000Z,997.4
2023-01-08T09:31:54.000Z,997.3
2023-01-08T09:33:06.000Z,997.4
2023-01-08T09:34:18.000Z,997.3
2023-01-08T09:35:30.000Z,997.3
2023-01-08T09:36:43.000Z,997.3
2023-01-08T09:37:55.000Z,997.3
2023-01-08T09:39:07.000Z,997.4
2023-01-08T09:40:19.000Z,997.4
2023-01-08T09:41:31.000Z,997.4
2023-01-08T09:42:43.000Z,997.4
2023-01-08T09:43:56.000Z,997.3
2023-01-08T09:45:08.000Z,997.3
2023-01-08T09:46:19.000Z,997.3
2023-01-08T09:47:31.000Z,997.3
2023-01-08T09:48:43.000Z,997.3
2023-01-08T09:49:56.000Z,997.4
2023-01-08T09:51:08.000Z,997.3
2023-01-08T09:52:20.000Z,997.4
2023-01-08T09:53:32.000Z,997.3
2023-01-08T09:54:44.000Z,997.3
2023-01-08T09:55:57.000Z,997.3
2023-01-08T09:57:09.000Z,997.3
2023-01-08T09:58:21.000Z,997.3
2023-01-08T09:59:33.000Z,997.3
2023-01-08T10:00:45.000Z,997.3
2023-01-08T10:01:56.000Z,997.3
2023-01-08T10:03:09.000Z,997.3
2023-01-08T10:04:21.000Z,997.3
2023-01-08T10:05:33.000Z,997.3
2023-01-08T10:06:45.000Z,997.2
2023-01-08T10:07:57.000Z,997.2
2023-01-08T10:09:10.000Z,997.3
2023-01-08T10:10:22.000Z,997.3
2023-01-08T10:11:34.000Z,997.3
2023-01-08T10:12:46.000Z,997.3
2023-01-08T10:15:10.000Z,997.2
2023-01-08T10:16:23.000Z,997.2
2023-01-08T10:18:46.000Z,997.1
2023-01-08T10:19:58.000Z,997.1
2023-01-08T10:21:10.000Z,997.1
2023-01-08T10:21:23.147Z,997.3
2023-01-08T10:22:23.000Z,997.1
2023-01-08T10:23:35.000Z,997.1
2023-01-08T10:24:47.000Z,997
2023-01-08T10:24:58.717Z,997.2
2023-01-08T10:25:59.000Z,997
2023-01-08T10:27:11.000Z,997
2023-01-08T10:28:24.000Z,996.9
2023-01-08T10:29:36.000Z,996.9
2023-01-08T10:30:48.000Z,996.9
2023-01-08T10:32:00.000Z,997
2023-01-08T10:33:11.000Z,997
2023-01-08T10:35:36.000Z,997
2023-01-08T10:36:48.000Z,997
2023-01-08T10:38:00.000Z,997
2023-01-08T10:39:12.000Z,997
2023-01-08T10:40:24.000Z,997
2023-01-08T10:41:37.000Z,997
2023-01-08T10:41:48.325Z,996.9
2023-01-08T10:42:49.000Z,996.9
2023-01-08T10:44:01.000Z,996.9
2023-01-08T10:45:13.000Z,996.8
2023-01-08T10:46:25.000Z,996.8
2023-01-08T10:47:37.000Z,996.8
2023-01-08T10:48:49.000Z,996.8
2023-01-08T10:50:01.000Z,996.8
2023-01-08T10:51:13.000Z,996.8
2023-01-08T10:52:25.000Z,996.7
2023-01-08T10:53:37.000Z,996.7
2023-01-08T10:54:50.000Z,996.6
2023-01-08T10:56:02.000Z,996.6
2023-01-08T10:57:14.000Z,996.6
2023-01-08T10:58:26.000Z,996.6
2023-01-08T10:59:38.000Z,996.6
2023-01-08T11:00:51.000Z,996.6
2023-01-08T11:02:03.000Z,996.6
2023-01-08T11:03:15.000Z,996.7
2023-01-08T11:04:26.000Z,996.6
2023-01-08T11:05:38.000Z,996.6
2023-01-08T11:06:50.000Z,996.6
2023-01-08T11:08:03.000Z,996.5
2023-01-08T11:09:15.000Z,996.5
2023-01-08T11:10:27.000Z,996.5
2023-01-08T11:11:39.000Z,996.5
2023-01-08T11:12:51.000Z,996.6
2023-01-08T11:14:04.000Z,996.5
2023-01-08T11:15:16.000Z,996.5
2023-01-08T11:16:28.000Z,996.5
2023-01-08T11:17:40.000Z,996.5
2023-01-08T11:18:52.000Z,996.5
2023-01-08T11:20:03.000Z,996.5
2023-01-08T11:21:16.000Z,996.5
2023-01-08T11:23:40.000Z,996.5
2023-01-08T11:24:52.000Z,996.5
2023-01-08T11:26:04.000Z,996.5
2023-01-08T11:27:17.000Z,996.5
2023-01-08T11:28:29.000Z,996.5
2023-01-08T11:29:41.000Z,996.4
2023-01-08T11:29:52.764Z,996.5
2023-01-08T11:30:53.000Z,996.4
2023-01-08T11:32:05.000Z,996.4
2023-01-08T11:33:18.000Z,996.3
2023-01-08T11:34:30.000Z,996.2
2023-01-08T11:35:41.000Z,996.3
2023-01-08T11:36:53.000Z,996.3
2023-01-08T11:38:05.000Z,996.2
2023-01-08T11:39:17.000Z,996.2
2023-01-08T11:40:30.000Z,996.1
2023-01-08T11:41:41.000Z,996.1
2023-01-08T11:42:53.000Z,996.1
2023-01-08T11:44:05.000Z,996.1
2023-01-08T11:45:17.000Z,996.1
2023-01-08T11:46:30.000Z,996.1
2023-01-08T11:47:42.000Z,996.1
2023-01-08T11:48:54.000Z,996.1
2023-01-08T11:50:06.000Z,996.1
2023-01-08T11:51:18.000Z,996
2023-01-08T11:52:30.000Z,995.9
2023-01-08T11:53:43.000Z,995.9
2023-01-08T11:54:55.000Z,995.9
2023-01-08T11:56:07.000Z,995.9
2023-01-08T11:57:18.000Z,995.8
2023-01-08T11:58:30.000Z,995.9
2023-01-08T11:59:43.000Z,995.9
2023-01-08T12:00:55.000Z,995.9
2023-01-08T12:02:07.000Z,995.8
2023-01-08T12:03:19.000Z,995.8
2023-01-08T12:04:31.000Z,995.8
2023-01-08T12:05:44.000Z,995.8
2023-01-08T12:06:56.000Z,995.8
2023-01-08T12:08:08.000Z,995.8
2023-01-08T12:09:20.000Z,995.8
2023-01-08T12:10:32.000Z,995.9
2023-01-08T12:11:44.000Z,995.9
2023-01-08T12:12:56.000Z,995.9
2023-01-08T12:14:08.000Z,995.9
2023-01-08T12:15:20.000Z,995.9
2023-01-08T12:16:32.000Z,995.9
2023-01-08T12:17:44.000Z,995.8
2023-01-08T12:18:57.000Z,995.9
2023-01-08T12:20:09.000Z,996
2023-01-08T12:21:21.000Z,995.9
2023-01-08T12:22:33.000Z,995.9
2023-01-08T12:23:45.000Z,995.9
2023-01-08T12:24:57.000Z,995.9
2023-01-08T12:26:10.000Z,995.9
2023-01-08T12:27:22.000Z,995.9
2023-01-08T12:28:33.000Z,995.9
2023-01-08T12:29:45.000Z,995.9
2023-01-08T12:30:57.000Z,995.9
2023-01-08T12:32:10.000Z,995.9
2023-01-08T12:33:22.000Z,995.8
2023-01-08T12:34:34.000Z,995.9
2023-01-08T12:35:46.000Z,995.9
2023-01-08T12:36:58.000Z,995.8
2023-01-08T12:38:11.000Z,995.8
2023-01-08T12:39:23.000Z,995.7
2023-01-08T12:40:35.000Z,995.7
2023-01-08T12:41:47.000Z,995.7
2023-01-08T12:42:59.000Z,995.7
2023-01-08T12:44:11.000Z,995.6
2023-01-08T12:45:23.000Z,995.6
2023-01-08T12:46:35.000Z,995.6
2023-01-08T12:47:47.000Z,995.5
2023-01-08T12:50:11.000Z,995.4
2023-01-08T12:51:24.000Z,995.4
2023-01-08T12:52:36.000Z,995.4
2023-01-08T12:53:48.000Z,995.4
2023-01-08T12:55:00.000Z,995.4
2023-01-08T12:56:12.000Z,995.4
2023-01-08T12:56:24.155Z,995.5
2023-01-08T12:57:24.000Z,995.3
2023-01-08T12:58:37.000Z,995.3
2023-01-08T12:59:49.000Z,995.3
2023-01-08T13:02:12.000Z,995.2
2023-01-08T13:04:37.000Z,995.3
2023-01-08T13:05:49.000Z,995.2
2023-01-08T13:07:01.000Z,995.2
2023-01-08T13:08:13.000Z,995.2
2023-01-08T13:08:25.027Z,995.2
2023-01-08T13:09:25.000Z,995.1
2023-01-08T13:10:38.000Z,995.1
2023-01-08T13:10:49.391Z,995.2
2023-01-08T13:11:50.000Z,995.1
2023-01-08T13:13:02.000Z,995.1
2023-01-08T13:14:14.000Z,995.1
2023-01-08T13:15:26.000Z,995.1
2023-01-08T13:16:37.000Z,995
2023-01-08T13:17:50.000Z,995
2023-01-08T13:19:02.000Z,995
2023-01-08T13:21:26.000Z,994.9
2023-01-08T13:22:38.000Z,994.9
2023-01-08T13:23:51.000Z,994.9
2023-01-08T13:25:03.000Z,995
2023-01-08T13:26:15.000Z,994.9
2023-01-08T13:27:27.000Z,994.9
2023-01-08T13:27:38.986Z,995
2023-01-08T13:28:39.000Z,994.8
2023-01-08T13:29:51.000Z,994.9
2023-01-08T13:31:04.000Z,994.8
2023-01-08T13:33:27.000Z,994.8
2023-01-08T13:35:51.000Z,994.9
2023-01-08T13:37:04.000Z,994.9
2023-01-08T13:38:16.000Z,994.9
2023-01-08T13:39:28.000Z,994.8
2023-01-08T13:39:39.852Z,994.8
2023-01-08T13:40:40.000Z,994.8
2023-01-08T13:41:52.000Z,994.8
2023-01-08T13:42:04.227Z,994.9
2023-01-08T13:43:05.000Z,994.8
2023-01-08T13:44:17.000Z,994.8
2023-01-08T13:45:29.000Z,994.9
2023-01-08T13:46:41.000Z,994.9
2023-01-08T13:47:52.000Z,994.9
2023-01-08T13:49:04.000Z,994.9
2023-01-08T13:50:17.000Z,994.9
2023-01-08T13:52:41.000Z,994.8
2023-01-08T13:53:53.000Z,994.9
2023-01-08T13:55:05.000Z,994.9
2023-01-08T13:56:18.000Z,994.9
2023-01-08T13:57:30.000Z,995
2023-01-08T13:58:42.000Z,994.9
2023-01-08T13:58:53.000Z,994.9
2023-01-08T13:59:54.000Z,994.9
2023-01-08T14:01:06.000Z,994.9
2023-01-08T14:02:18.000Z,994.9
2023-01-08T14:03:30.000Z,994.9
2023-01-08T14:04:42.000Z,994.9
2023-01-08T14:05:54.000Z,995
2023-01-08T14:07:06.000Z,994.9
2023-01-08T14:08:18.000Z,995
2023-01-08T14:09:31.000Z,995
2023-01-08T14:11:55.000Z,995
2023-01-08T14:13:07.000Z,995.1
2023-01-08T14:14:19.000Z,995.2
2023-01-08T14:15:32.000Z,995.2
2023-01-08T14:16:44.000Z,995.2
2023-01-08T14:17:56.000Z,995.2
2023-01-08T14:18:07.000Z,995
2023-01-08T14:19:08.000Z,995.1
2023-01-08T14:20:19.000Z,995.1
2023-01-08T14:21:31.000Z,995.1
2023-01-08T14:22:44.000Z,995.1
2023-01-08T14:23:56.000Z,995.1
2023-01-08T14:25:08.000Z,995.1
2023-01-08T14:26:20.000Z,995
2023-01-08T14:27:32.000Z,995
2023-01-08T14:28:45.000Z,995.1
2023-01-08T14:29:57.000Z,995.1
2023-01-08T14:31:09.000Z,995.2
2023-01-08T14:32:21.000Z,995.3
2023-01-08T14:33:33.000Z,995.3
2023-01-08T14:34:45.000Z,995.3
2023-01-08T14:35:57.000Z,995.2
2023-01-08T14:37:09.000Z,995.2
2023-01-08T14:38:21.000Z,995.2
2023-01-08T14:39:33.000Z,995.3
2023-01-08T14:40:45.000Z,995.3
2023-01-08T14:41:58.000Z,995.2
2023-01-08T14:43:10.000Z,995.2
2023-01-08T14:44:22.000Z,995.1
2023-01-08T14:45:34.000Z,995.1
2023-01-08T14:46:46.000Z,995.1
2023-01-08T14:47:59.000Z,995.1
2023-01-08T14:49:11.000Z,995.1
2023-01-08T14:50:23.000Z,995.1
2023-01-08T14:51:34.000Z,995.2
2023-01-08T14:52:46.000Z,995.1
2023-01-08T14:53:58.000Z,995.1
2023-01-08T14:55:11.000Z,995.1
2023-01-08T14:56:23.000Z,995
2023-01-08T14:57:35.000Z,995
2023-01-08T14:58:47.000Z,995
2023-01-08T14:59:59.000Z,995
2023-01-08T15:01:12.000Z,995
2023-01-08T15:02:24.000Z,994.9
2023-01-08T15:03:36.000Z,995
2023-01-08T15:06:00.000Z,994.9
2023-01-08T15:07:12.000Z,994.9
2023-01-08T15:08:24.000Z,994.9
2023-01-08T15:09:36.000Z,995
2023-01-08T15:10:48.000Z,994.9
2023-01-08T15:12:00.000Z,995
2023-01-08T15:12:13.165Z,994.9
2023-01-08T15:13:12.000Z,995
2023-01-08T15:14:25.000Z,995
2023-01-08T15:15:37.000Z,995
2023-01-08T15:16:49.000Z,994.9
2023-01-08T15:18:01.000Z,995
2023-01-08T15:19:13.000Z,995.1
2023-01-08T15:20:26.000Z,995.1
2023-01-08T15:21:38.000Z,995.1
2023-01-08T15:22:49.000Z,995
2023-01-08T15:24:01.000Z,995
2023-01-08T15:25:13.000Z,994.9
2023-01-08T15:26:25.000Z,994.9
2023-01-08T15:27:38.000Z,994.8
2023-01-08T15:28:50.000Z,994.9
2023-01-08T15:30:02.000Z,994.9
2023-01-08T15:31:14.000Z,995
2023-01-08T15:32:26.000Z,994.9
2023-01-08T15:33:39.000Z,994.9